sensor_id;sensor_type;location;lat;lon;timestamp;P1;durP1;ratioP1;P2;durP2;ratioP2
3359;SDS011;1693;49.602;11.046;2023-10-13T00:01:21;5.73;;;3.73;;
3359;SDS011;1693;49.602;11.046;2023-10-13T00:03:48;4.43;;;3.70;;
3359;SDS011;1693;49.602;11.046;2023-10-13T00:06:17;4.13;;;3.80;;
3359;SDS011;1693;49.602;11.046;2023-10-13T00:08:45;5.93;;;3.53;;
3359;SDS011;1693;49.602;11.046;2023-10-13T00:11:12;7.40;;;5.23;;
3359;SDS011;1693;49.602;11.046;2023-10-13T00:13:39;4.20;;;3.90;;
3359;SDS011;1693;49.602;11.046;2023-10-13T00:16:08;5.67;;;3.37;;
3359;SDS011;1693;49.602;11.046;2023-10-13T00:18:43;5.40;;;3.80;;
3359;SDS011;1693;49.602;11.046;2023-10-13T00:21:11;4.17;;;3.87;;
3359;SDS011;1693;49.602;11.046;2023-10-13T00:23:38;4.43;;;3.57;;
3359;SDS011;1693;49.602;11.046;2023-10-13T00:26:08;5.23;;;3.80;;
3359;SDS011;1693;49.602;11.046;2023-10-13T00:28:36;3.37;;;3.03;;
3359;SDS011;1693;49.602;11.046;2023-10-13T00:31:12;4.30;;;3.77;;
3359;SDS011;1693;49.602;11.046;2023-10-13T00:33:39;6.43;;;4.57;;
3359;SDS011;1693;49.602;11.046;2023-10-13T00:36:08;3.40;;;3.10;;
3359;SDS011;1693;49.602;11.046;2023-10-13T00:38:42;8.20;;;3.67;;
3359;SDS011;1693;49.602;11.046;2023-10-13T00:41:13;6.73;;;4.43;;
3359;SDS011;1693;49.602;11.046;2023-10-13T00:43:45;3.23;;;3.00;;
3359;SDS011;1693;49.602;11.046;2023-10-13T00:46:30;3.57;;;2.67;;
3359;SDS011;1693;49.602;11.046;2023-10-13T00:48:58;4.23;;;3.50;;
3359;SDS011;1693;49.602;11.046;2023-10-13T00:51:27;6.13;;;4.83;;
3359;SDS011;1693;49.602;11.046;2023-10-13T00:54:02;4.37;;;3.40;;
3359;SDS011;1693;49.602;11.046;2023-10-13T00:56:32;4.47;;;3.70;;
3359;SDS011;1693;49.602;11.046;2023-10-13T00:59:06;5.70;;;3.73;;
3359;SDS011;1693;49.602;11.046;2023-10-13T01:01:35;5.30;;;4.20;;
3359;SDS011;1693;49.602;11.046;2023-10-13T01:04:02;4.83;;;3.93;;
3359;SDS011;1693;49.602;11.046;2023-10-13T01:06:35;3.80;;;3.47;;
3359;SDS011;1693;49.602;11.046;2023-10-13T01:09:03;5.93;;;4.37;;
3359;SDS011;1693;49.602;11.046;2023-10-13T01:11:36;5.90;;;4.87;;
3359;SDS011;1693;49.602;11.046;2023-10-13T01:14:04;3.40;;;2.47;;
3359;SDS011;1693;49.602;11.046;2023-10-13T01:16:30;6.50;;;4.87;;
3359;SDS011;1693;49.602;11.046;2023-10-13T01:19:05;4.83;;;3.90;;
3359;SDS011;1693;49.602;11.046;2023-10-13T01:21:32;6.27;;;5.40;;
3359;SDS011;1693;49.602;11.046;2023-10-13T01:24:01;4.30;;;3.30;;
3359;SDS011;1693;49.602;11.046;2023-10-13T01:26:33;4.30;;;3.17;;
3359;SDS011;1693;49.602;11.046;2023-10-13T01:29:04;4.80;;;3.13;;
3359;SDS011;1693;49.602;11.046;2023-10-13T01:31:39;5.37;;;3.53;;
3359;SDS011;1693;49.602;11.046;2023-10-13T01:34:12;6.30;;;3.57;;
3359;SDS011;1693;49.602;11.046;2023-10-13T01:36:39;4.30;;;3.90;;
3359;SDS011;1693;49.602;11.046;2023-10-13T01:39:09;4.97;;;3.80;;
3359;SDS011;1693;49.602;11.046;2023-10-13T01:41:36;4.70;;;4.23;;
3359;SDS011;1693;49.602;11.046;2023-10-13T01:44:04;6.70;;;4.00;;
3359;SDS011;1693;49.602;11.046;2023-10-13T01:46:30;5.77;;;5.00;;
3359;SDS011;1693;49.602;11.046;2023-10-13T01:49:02;3.97;;;3.60;;
3359;SDS011;1693;49.602;11.046;2023-10-13T01:51:28;4.27;;;3.70;;
3359;SDS011;1693;49.602;11.046;2023-10-13T01:53:55;5.10;;;4.30;;
3359;SDS011;1693;49.602;11.046;2023-10-13T01:56:23;4.20;;;3.70;;
3359;SDS011;1693;49.602;11.046;2023-10-13T01:58:54;4.40;;;3.93;;
3359;SDS011;1693;49.602;11.046;2023-10-13T02:01:22;7.10;;;4.33;;
3359;SDS011;1693;49.602;11.046;2023-10-13T02:03:53;4.23;;;3.10;;
3359;SDS011;1693;49.602;11.046;2023-10-13T02:06:27;3.70;;;3.40;;
3359;SDS011;1693;49.602;11.046;2023-10-13T02:08:58;3.47;;;3.17;;
3359;SDS011;1693;49.602;11.046;2023-10-13T02:11:36;3.83;;;3.47;;
3359;SDS011;1693;49.602;11.046;2023-10-13T02:14:04;5.70;;;4.40;;
3359;SDS011;1693;49.602;11.046;2023-10-13T02:16:30;4.60;;;3.53;;
3359;SDS011;1693;49.602;11.046;2023-10-13T02:18:57;7.60;;;4.27;;
3359;SDS011;1693;49.602;11.046;2023-10-13T02:21:29;5.10;;;4.60;;
3359;SDS011;1693;49.602;11.046;2023-10-13T02:23:57;5.97;;;4.03;;
3359;SDS011;1693;49.602;11.046;2023-10-13T02:26:29;3.73;;;3.43;;
3359;SDS011;1693;49.602;11.046;2023-10-13T02:28:58;8.20;;;4.03;;
3359;SDS011;1693;49.602;11.046;2023-10-13T02:31:28;3.30;;;3.00;;
3359;SDS011;1693;49.602;11.046;2023-10-13T02:33:57;5.57;;;4.50;;
3359;SDS011;1693;49.602;11.046;2023-10-13T02:36:25;4.80;;;3.33;;
3359;SDS011;1693;49.602;11.046;2023-10-13T02:39:01;8.40;;;4.17;;
3359;SDS011;1693;49.602;11.046;2023-10-13T02:41:32;4.20;;;3.23;;
3359;SDS011;1693;49.602;11.046;2023-10-13T02:44:03;7.80;;;4.37;;
3359;SDS011;1693;49.602;11.046;2023-10-13T02:46:33;4.73;;;4.03;;
3359;SDS011;1693;49.602;11.046;2023-10-13T02:49:02;4.27;;;3.87;;
3359;SDS011;1693;49.602;11.046;2023-10-13T02:51:35;4.60;;;3.60;;
3359;SDS011;1693;49.602;11.046;2023-10-13T02:54:01;5.00;;;3.33;;
3359;SDS011;1693;49.602;11.046;2023-10-13T02:56:34;6.30;;;3.17;;
3359;SDS011;1693;49.602;11.046;2023-10-13T02:59:01;8.67;;;4.83;;
3359;SDS011;1693;49.602;11.046;2023-10-13T03:01:31;4.10;;;3.70;;
3359;SDS011;1693;49.602;11.046;2023-10-13T03:03:59;4.60;;;3.87;;
3359;SDS011;1693;49.602;11.046;2023-10-13T03:06:29;4.53;;;3.60;;
3359;SDS011;1693;49.602;11.046;2023-10-13T03:08:58;4.77;;;4.30;;
3359;SDS011;1693;49.602;11.046;2023-10-13T03:11:39;6.90;;;4.20;;
3359;SDS011;1693;49.602;11.046;2023-10-13T03:14:13;4.57;;;3.80;;
3359;SDS011;1693;49.602;11.046;2023-10-13T03:16:57;3.70;;;3.30;;
3359;SDS011;1693;49.602;11.046;2023-10-13T03:19:28;4.53;;;3.63;;
3359;SDS011;1693;49.602;11.046;2023-10-13T03:21:58;4.57;;;3.97;;
3359;SDS011;1693;49.602;11.046;2023-10-13T03:24:31;5.00;;;3.90;;
3359;SDS011;1693;49.602;11.046;2023-10-13T03:27:00;3.93;;;3.40;;
3359;SDS011;1693;49.602;11.046;2023-10-13T03:29:35;3.20;;;2.90;;
3359;SDS011;1693;49.602;11.046;2023-10-13T03:32:03;5.73;;;4.13;;
3359;SDS011;1693;49.602;11.046;2023-10-13T03:34:36;4.23;;;3.80;;
3359;SDS011;1693;49.602;11.046;2023-10-13T03:37:06;4.70;;;3.50;;
3359;SDS011;1693;49.602;11.046;2023-10-13T03:39:43;4.67;;;3.90;;
3359;SDS011;1693;49.602;11.046;2023-10-13T03:42:10;4.83;;;3.70;;
3359;SDS011;1693;49.602;11.046;2023-10-13T03:44:43;6.13;;;4.47;;
3359;SDS011;1693;49.602;11.046;2023-10-13T03:47:13;6.10;;;3.80;;
3359;SDS011;1693;49.602;11.046;2023-10-13T03:49:51;5.53;;;3.57;;
3359;SDS011;1693;49.602;11.046;2023-10-13T03:52:39;5.00;;;4.50;;
3359;SDS011;1693;49.602;11.046;2023-10-13T03:55:06;3.83;;;3.43;;
3359;SDS011;1693;49.602;11.046;2023-10-13T03:57:41;3.63;;;3.03;;
3359;SDS011;1693;49.602;11.046;2023-10-13T04:00:09;5.03;;;4.63;;
3359;SDS011;1693;49.602;11.046;2023-10-13T04:02:47;4.07;;;3.70;;
3359;SDS011;1693;49.602;11.046;2023-10-13T04:05:20;8.50;;;4.10;;
3359;SDS011;1693;49.602;11.046;2023-10-13T04:08:02;4.10;;;2.87;;
3359;SDS011;1693;49.602;11.046;2023-10-13T04:10:46;3.23;;;2.80;;
3359;SDS011;1693;49.602;11.046;2023-10-13T04:13:30;7.50;;;4.03;;
3359;SDS011;1693;49.602;11.046;2023-10-13T04:16:15;5.30;;;4.70;;
3359;SDS011;1693;49.602;11.046;2023-10-13T04:19:01;4.13;;;3.73;;
3359;SDS011;1693;49.602;11.046;2023-10-13T04:21:35;3.70;;;3.40;;
3359;SDS011;1693;49.602;11.046;2023-10-13T04:24:07;4.80;;;4.27;;
3359;SDS011;1693;49.602;11.046;2023-10-13T04:26:47;5.50;;;4.90;;
3359;SDS011;1693;49.602;11.046;2023-10-13T04:29:43;4.53;;;3.80;;
3359;SDS011;1693;49.602;11.046;2023-10-13T04:32:17;6.10;;;4.00;;
3359;SDS011;1693;49.602;11.046;2023-10-13T04:34:56;3.97;;;3.67;;
3359;SDS011;1693;49.602;11.046;2023-10-13T04:37:33;5.97;;;4.30;;
3359;SDS011;1693;49.602;11.046;2023-10-13T04:40:14;5.00;;;3.70;;
3359;SDS011;1693;49.602;11.046;2023-10-13T04:42:44;5.63;;;4.70;;
3359;SDS011;1693;49.602;11.046;2023-10-13T04:45:24;4.07;;;3.67;;
3359;SDS011;1693;49.602;11.046;2023-10-13T04:48:25;4.43;;;4.03;;
3359;SDS011;1693;49.602;11.046;2023-10-13T04:51:10;3.47;;;3.10;;
3359;SDS011;1693;49.602;11.046;2023-10-13T04:54:15;6.03;;;3.90;;
3359;SDS011;1693;49.602;11.046;2023-10-13T04:56:51;5.37;;;4.87;;
3359;SDS011;1693;49.602;11.046;2023-10-13T04:59:36;3.83;;;3.20;;
3359;SDS011;1693;49.602;11.046;2023-10-13T05:02:23;5.13;;;3.67;;
3359;SDS011;1693;49.602;11.046;2023-10-13T05:05:23;3.47;;;3.17;;
3359;SDS011;1693;49.602;11.046;2023-10-13T05:08:09;3.80;;;3.27;;
3359;SDS011;1693;49.602;11.046;2023-10-13T05:10:53;3.97;;;3.57;;
3359;SDS011;1693;49.602;11.046;2023-10-13T05:13:38;5.10;;;4.30;;
3359;SDS011;1693;49.602;11.046;2023-10-13T05:16:23;4.70;;;3.73;;
3359;SDS011;1693;49.602;11.046;2023-10-13T05:19:08;7.37;;;3.87;;
3359;SDS011;1693;49.602;11.046;2023-10-13T05:21:52;3.40;;;2.93;;
3359;SDS011;1693;49.602;11.046;2023-10-13T05:24:38;7.10;;;5.50;;
3359;SDS011;1693;49.602;11.046;2023-10-13T05:27:23;6.07;;;5.47;;
3359;SDS011;1693;49.602;11.046;2023-10-13T05:30:06;3.30;;;3.00;;
3359;SDS011;1693;49.602;11.046;2023-10-13T05:32:51;3.97;;;3.33;;
3359;SDS011;1693;49.602;11.046;2023-10-13T05:35:36;5.63;;;5.03;;
3359;SDS011;1693;49.602;11.046;2023-10-13T05:38:20;4.83;;;4.43;;
3359;SDS011;1693;49.602;11.046;2023-10-13T05:41:07;4.23;;;3.83;;
3359;SDS011;1693;49.602;11.046;2023-10-13T05:43:53;6.27;;;3.30;;
3359;SDS011;1693;49.602;11.046;2023-10-13T05:46:40;5.40;;;4.40;;
3359;SDS011;1693;49.602;11.046;2023-10-13T05:49:47;3.60;;;3.10;;
3359;SDS011;1693;49.602;11.046;2023-10-13T05:52:30;8.43;;;4.73;;
3359;SDS011;1693;49.602;11.046;2023-10-13T05:55:14;4.73;;;4.33;;
3359;SDS011;1693;49.602;11.046;2023-10-13T05:58:01;6.47;;;5.30;;
3359;SDS011;1693;49.602;11.046;2023-10-13T06:00:46;7.97;;;4.30;;
3359;SDS011;1693;49.602;11.046;2023-10-13T06:03:30;5.90;;;4.80;;
3359;SDS011;1693;49.602;11.046;2023-10-13T06:06:15;5.00;;;4.23;;
3359;SDS011;1693;49.602;11.046;2023-10-13T06:09:01;3.80;;;3.40;;
3359;SDS011;1693;49.602;11.046;2023-10-13T06:11:46;4.97;;;4.43;;
3359;SDS011;1693;49.602;11.046;2023-10-13T06:14:32;3.83;;;3.43;;
3359;SDS011;1693;49.602;11.046;2023-10-13T06:17:16;9.90;;;4.93;;
3359;SDS011;1693;49.602;11.046;2023-10-13T06:20:01;6.40;;;4.50;;
3359;SDS011;1693;49.602;11.046;2023-10-13T06:22:48;5.30;;;4.40;;
3359;SDS011;1693;49.602;11.046;2023-10-13T06:25:33;4.17;;;3.50;;
3359;SDS011;1693;49.602;11.046;2023-10-13T06:28:18;4.40;;;3.27;;
3359;SDS011;1693;49.602;11.046;2023-10-13T06:31:04;5.33;;;3.10;;
3359;SDS011;1693;49.602;11.046;2023-10-13T06:33:32;4.53;;;4.13;;
3359;SDS011;1693;49.602;11.046;2023-10-13T06:36:00;7.17;;;4.07;;
3359;SDS011;1693;49.602;11.046;2023-10-13T06:38:28;4.80;;;4.10;;
3359;SDS011;1693;49.602;11.046;2023-10-13T06:41:01;3.43;;;3.13;;
3359;SDS011;1693;49.602;11.046;2023-10-13T06:43:31;4.17;;;3.83;;
3359;SDS011;1693;49.602;11.046;2023-10-13T06:46:05;3.57;;;3.20;;
3359;SDS011;1693;49.602;11.046;2023-10-13T06:48:39;6.20;;;4.33;;
3359;SDS011;1693;49.602;11.046;2023-10-13T06:51:07;4.23;;;3.10;;
3359;SDS011;1693;49.602;11.046;2023-10-13T06:53:43;4.77;;;3.00;;
3359;SDS011;1693;49.602;11.046;2023-10-13T06:56:13;7.97;;;3.23;;
3359;SDS011;1693;49.602;11.046;2023-10-13T06:58:43;4.50;;;3.67;;
3359;SDS011;1693;49.602;11.046;2023-10-13T07:01:13;5.67;;;4.70;;
3359;SDS011;1693;49.602;11.046;2023-10-13T07:03:41;6.37;;;3.73;;
3359;SDS011;1693;49.602;11.046;2023-10-13T07:06:08;5.10;;;4.30;;
3359;SDS011;1693;49.602;11.046;2023-10-13T07:08:37;3.73;;;3.40;;
3359;SDS011;1693;49.602;11.046;2023-10-13T07:11:04;3.77;;;3.40;;
3359;SDS011;1693;49.602;11.046;2023-10-13T07:13:38;4.17;;;3.80;;
3359;SDS011;1693;49.602;11.046;2023-10-13T07:16:14;5.20;;;3.20;;
3359;SDS011;1693;49.602;11.046;2023-10-13T07:18:40;3.80;;;3.33;;
3359;SDS011;1693;49.602;11.046;2023-10-13T07:21:14;9.17;;;4.07;;
3359;SDS011;1693;49.602;11.046;2023-10-13T07:23:41;5.73;;;4.63;;
3359;SDS011;1693;49.602;11.046;2023-10-13T07:26:14;3.27;;;2.97;;
3359;SDS011;1693;49.602;11.046;2023-10-13T07:28:41;4.20;;;3.63;;
3359;SDS011;1693;49.602;11.046;2023-10-13T07:31:11;4.33;;;3.87;;
3359;SDS011;1693;49.602;11.046;2023-10-13T07:33:41;5.77;;;3.90;;
3359;SDS011;1693;49.602;11.046;2023-10-13T07:36:08;5.37;;;4.80;;
3359;SDS011;1693;49.602;11.046;2023-10-13T07:38:43;4.87;;;4.03;;
3359;SDS011;1693;49.602;11.046;2023-10-13T07:41:13;5.23;;;4.77;;
3359;SDS011;1693;49.602;11.046;2023-10-13T07:43:42;8.77;;;3.87;;
3359;SDS011;1693;49.602;11.046;2023-10-13T07:46:11;8.80;;;3.60;;
3359;SDS011;1693;49.602;11.046;2023-10-13T07:48:39;5.37;;;4.43;;
3359;SDS011;1693;49.602;11.046;2023-10-13T07:51:10;8.03;;;5.00;;
3359;SDS011;1693;49.602;11.046;2023-10-13T07:53:41;5.03;;;3.87;;
3359;SDS011;1693;49.602;11.046;2023-10-13T07:56:08;5.63;;;4.37;;
3359;SDS011;1693;49.602;11.046;2023-10-13T07:58:37;6.67;;;4.90;;
3359;SDS011;1693;49.602;11.046;2023-10-13T08:01:13;4.63;;;4.17;;
3359;SDS011;1693;49.602;11.046;2023-10-13T08:03:45;7.03;;;4.20;;
3359;SDS011;1693;49.602;11.046;2023-10-13T08:06:12;6.40;;;4.87;;
3359;SDS011;1693;49.602;11.046;2023-10-13T08:08:46;6.03;;;3.30;;
3359;SDS011;1693;49.602;11.046;2023-10-13T08:11:18;3.33;;;3.03;;
3359;SDS011;1693;49.602;11.046;2023-10-13T08:13:56;3.73;;;3.37;;
3359;SDS011;1693;49.602;11.046;2023-10-13T08:16:25;4.03;;;3.37;;
3359;SDS011;1693;49.602;11.046;2023-10-13T08:19:12;4.90;;;2.40;;
3359;SDS011;1693;49.602;11.046;2023-10-13T08:21:41;3.07;;;2.50;;
3359;SDS011;1693;49.602;11.046;2023-10-13T08:24:15;6.60;;;3.00;;
3359;SDS011;1693;49.602;11.046;2023-10-13T08:26:50;2.60;;;2.40;;
3359;SDS011;1693;49.602;11.046;2023-10-13T08:29:22;3.83;;;2.83;;
3359;SDS011;1693;49.602;11.046;2023-10-13T08:32:07;3.33;;;2.03;;
3359;SDS011;1693;49.602;11.046;2023-10-13T08:34:46;2.33;;;2.13;;
3359;SDS011;1693;49.602;11.046;2023-10-13T08:37:35;2.77;;;2.27;;
3359;SDS011;1693;49.602;11.046;2023-10-13T08:40:12;4.83;;;2.63;;
3359;SDS011;1693;49.602;11.046;2023-10-13T08:43:00;3.40;;;3.03;;
3359;SDS011;1693;49.602;11.046;2023-10-13T08:45:39;3.03;;;2.20;;
3359;SDS011;1693;49.602;11.046;2023-10-13T08:48:21;3.30;;;2.93;;
3359;SDS011;1693;49.602;11.046;2023-10-13T08:50:58;3.63;;;2.87;;
3359;SDS011;1693;49.602;11.046;2023-10-13T08:53:37;2.70;;;2.37;;
3359;SDS011;1693;49.602;11.046;2023-10-13T08:56:17;2.93;;;2.57;;
3359;SDS011;1693;49.602;11.046;2023-10-13T08:58:58;2.73;;;2.33;;
3359;SDS011;1693;49.602;11.046;2023-10-13T09:01:31;3.10;;;2.40;;
3359;SDS011;1693;49.602;11.046;2023-10-13T09:04:05;2.90;;;2.70;;
3359;SDS011;1693;49.602;11.046;2023-10-13T09:06:51;2.23;;;1.83;;
3359;SDS011;1693;49.602;11.046;2023-10-13T09:09:49;1.97;;;1.73;;
3359;SDS011;1693;49.602;11.046;2023-10-13T09:12:40;2.43;;;2.00;;
3359;SDS011;1693;49.602;11.046;2023-10-13T09:15:30;3.07;;;2.47;;
3359;SDS011;1693;49.602;11.046;2023-10-13T09:18:22;2.03;;;1.77;;
3359;SDS011;1693;49.602;11.046;2023-10-13T09:21:07;3.77;;;2.03;;
3359;SDS011;1693;49.602;11.046;2023-10-13T09:23:56;2.00;;;1.80;;
3359;SDS011;1693;49.602;11.046;2023-10-13T09:26:37;4.83;;;2.07;;
3359;SDS011;1693;49.602;11.046;2023-10-13T09:29:13;5.27;;;2.80;;
3359;SDS011;1693;49.602;11.046;2023-10-13T09:31:43;2.80;;;2.13;;
3359;SDS011;1693;49.602;11.046;2023-10-13T09:34:10;1.97;;;1.53;;
3359;SDS011;1693;49.602;11.046;2023-10-13T09:36:46;2.57;;;2.30;;
3359;SDS011;1693;49.602;11.046;2023-10-13T09:39:16;4.93;;;2.10;;
3359;SDS011;1693;49.602;11.046;2023-10-13T09:41:55;3.07;;;1.97;;
3359;SDS011;1693;49.602;11.046;2023-10-13T09:44:21;2.17;;;1.97;;
3359;SDS011;1693;49.602;11.046;2023-10-13T09:46:57;1.73;;;1.63;;
3359;SDS011;1693;49.602;11.046;2023-10-13T09:49:37;2.20;;;1.90;;
3359;SDS011;1693;49.602;11.046;2023-10-13T09:52:15;2.17;;;1.83;;
3359;SDS011;1693;49.602;11.046;2023-10-13T09:54:58;3.13;;;1.50;;
3359;SDS011;1693;49.602;11.046;2023-10-13T09:57:37;4.50;;;2.17;;
3359;SDS011;1693;49.602;11.046;2023-10-13T10:00:11;3.40;;;2.87;;
3359;SDS011;1693;49.602;11.046;2023-10-13T10:02:55;8.00;;;2.40;;
3359;SDS011;1693;49.602;11.046;2023-10-13T10:05:39;3.10;;;2.80;;
3359;SDS011;1693;49.602;11.046;2023-10-13T10:08:06;1.93;;;1.80;;
3359;SDS011;1693;49.602;11.046;2023-10-13T10:10:51;2.93;;;2.17;;
3359;SDS011;1693;49.602;11.046;2023-10-13T10:13:25;2.03;;;1.40;;
3359;SDS011;1693;49.602;11.046;2023-10-13T10:15:59;4.97;;;2.17;;
3359;SDS011;1693;49.602;11.046;2023-10-13T10:18:30;3.87;;;2.40;;
3359;SDS011;1693;49.602;11.046;2023-10-13T10:21:03;2.40;;;2.20;;
3359;SDS011;1693;49.602;11.046;2023-10-13T10:23:34;3.50;;;1.90;;
3359;SDS011;1693;49.602;11.046;2023-10-13T10:26:10;1.73;;;1.63;;
3359;SDS011;1693;49.602;11.046;2023-10-13T10:28:39;2.30;;;1.40;;
3359;SDS011;1693;49.602;11.046;2023-10-13T10:31:08;1.80;;;1.20;;
3359;SDS011;1693;49.602;11.046;2023-10-13T10:33:37;3.80;;;1.80;;
3359;SDS011;1693;49.602;11.046;2023-10-13T10:36:05;2.07;;;1.50;;
3359;SDS011;1693;49.602;11.046;2023-10-13T10:38:37;2.47;;;1.70;;
3359;SDS011;1693;49.602;11.046;2023-10-13T10:41:05;2.47;;;1.80;;
3359;SDS011;1693;49.602;11.046;2023-10-13T10:43:39;2.70;;;1.67;;
3359;SDS011;1693;49.602;11.046;2023-10-13T10:46:15;2.47;;;1.40;;
3359;SDS011;1693;49.602;11.046;2023-10-13T10:48:43;5.93;;;2.37;;
3359;SDS011;1693;49.602;11.046;2023-10-13T10:51:11;3.07;;;1.87;;
3359;SDS011;1693;49.602;11.046;2023-10-13T10:53:46;4.93;;;3.73;;
3359;SDS011;1693;49.602;11.046;2023-10-13T10:56:15;1.87;;;1.27;;
3359;SDS011;1693;49.602;11.046;2023-10-13T10:58:46;2.23;;;2.03;;
3359;SDS011;1693;49.602;11.046;2023-10-13T11:01:13;2.93;;;2.03;;
3359;SDS011;1693;49.602;11.046;2023-10-13T11:03:55;3.43;;;3.10;;
3359;SDS011;1693;49.602;11.046;2023-10-13T11:06:33;5.30;;;4.30;;
3359;SDS011;1693;49.602;11.046;2023-10-13T11:09:07;4.90;;;3.93;;
3359;SDS011;1693;49.602;11.046;2023-10-13T11:11:44;3.80;;;2.00;;
3359;SDS011;1693;49.602;11.046;2023-10-13T11:14:24;5.57;;;2.63;;
3359;SDS011;1693;49.602;11.046;2023-10-13T11:16:52;2.90;;;2.00;;
3359;SDS011;1693;49.602;11.046;2023-10-13T11:19:20;2.93;;;1.53;;
3359;SDS011;1693;49.602;11.046;2023-10-13T11:21:53;1.80;;;1.10;;
3359;SDS011;1693;49.602;11.046;2023-10-13T11:24:21;3.90;;;2.13;;
3359;SDS011;1693;49.602;11.046;2023-10-13T11:26:48;2.33;;;1.70;;
3359;SDS011;1693;49.602;11.046;2023-10-13T11:29:17;1.70;;;1.30;;
3359;SDS011;1693;49.602;11.046;2023-10-13T11:31:50;2.40;;;1.70;;
3359;SDS011;1693;49.602;11.046;2023-10-13T11:34:22;4.73;;;2.30;;
3359;SDS011;1693;49.602;11.046;2023-10-13T11:36:50;2.63;;;1.37;;
3359;SDS011;1693;49.602;11.046;2023-10-13T11:39:17;1.60;;;1.20;;
3359;SDS011;1693;49.602;11.046;2023-10-13T11:41:49;2.57;;;1.70;;
3359;SDS011;1693;49.602;11.046;2023-10-13T11:44:20;4.70;;;2.50;;
3359;SDS011;1693;49.602;11.046;2023-10-13T11:46:55;2.03;;;1.30;;
3359;SDS011;1693;49.602;11.046;2023-10-13T11:49:44;3.67;;;2.30;;
3359;SDS011;1693;49.602;11.046;2023-10-13T11:52:35;3.10;;;1.73;;
3359;SDS011;1693;49.602;11.046;2023-10-13T11:55:24;3.63;;;1.87;;
3359;SDS011;1693;49.602;11.046;2023-10-13T11:57:52;2.57;;;1.77;;
3359;SDS011;1693;49.602;11.046;2023-10-13T12:00:24;3.13;;;1.60;;
3359;SDS011;1693;49.602;11.046;2023-10-13T12:03:13;1.80;;;1.40;;
3359;SDS011;1693;49.602;11.046;2023-10-13T12:05:58;1.60;;;1.17;;
3359;SDS011;1693;49.602;11.046;2023-10-13T12:08:44;2.00;;;1.57;;
3359;SDS011;1693;49.602;11.046;2023-10-13T12:11:16;2.30;;;1.23;;
3359;SDS011;1693;49.602;11.046;2023-10-13T12:13:58;1.97;;;1.37;;
3359;SDS011;1693;49.602;11.046;2023-10-13T12:16:37;4.13;;;1.67;;
3359;SDS011;1693;49.602;11.046;2023-10-13T12:19:05;2.40;;;1.87;;
3359;SDS011;1693;49.602;11.046;2023-10-13T12:21:36;2.33;;;1.83;;
3359;SDS011;1693;49.602;11.046;2023-10-13T12:24:03;2.77;;;1.67;;
3359;SDS011;1693;49.602;11.046;2023-10-13T12:26:38;2.63;;;2.07;;
3359;SDS011;1693;49.602;11.046;2023-10-13T12:29:07;3.30;;;1.80;;
3359;SDS011;1693;49.602;11.046;2023-10-13T12:31:47;1.83;;;1.50;;
3359;SDS011;1693;49.602;11.046;2023-10-13T12:34:27;3.30;;;1.90;;
3359;SDS011;1693;49.602;11.046;2023-10-13T12:37:18;2.43;;;1.60;;
3359;SDS011;1693;49.602;11.046;2023-10-13T12:40:04;2.80;;;2.13;;
3359;SDS011;1693;49.602;11.046;2023-10-13T12:42:49;2.40;;;1.73;;
3359;SDS011;1693;49.602;11.046;2023-10-13T12:45:37;2.50;;;1.83;;
3359;SDS011;1693;49.602;11.046;2023-10-13T12:48:22;1.97;;;1.13;;
3359;SDS011;1693;49.602;11.046;2023-10-13T12:51:09;3.10;;;1.33;;
3359;SDS011;1693;49.602;11.046;2023-10-13T12:53:47;2.37;;;1.90;;
3359;SDS011;1693;49.602;11.046;2023-10-13T12:56:14;3.13;;;1.33;;
3359;SDS011;1693;49.602;11.046;2023-10-13T12:58:41;1.87;;;1.57;;
3359;SDS011;1693;49.602;11.046;2023-10-13T13:01:17;2.40;;;1.83;;
3359;SDS011;1693;49.602;11.046;2023-10-13T13:03:45;3.03;;;2.37;;
3359;SDS011;1693;49.602;11.046;2023-10-13T13:06:18;2.67;;;1.30;;
3359;SDS011;1693;49.602;11.046;2023-10-13T13:08:50;3.30;;;2.23;;
3359;SDS011;1693;49.602;11.046;2023-10-13T13:11:18;1.87;;;1.20;;
3359;SDS011;1693;49.602;11.046;2023-10-13T13:13:46;2.17;;;1.23;;
3359;SDS011;1693;49.602;11.046;2023-10-13T13:16:15;2.70;;;1.40;;
3359;SDS011;1693;49.602;11.046;2023-10-13T13:18:44;2.10;;;1.33;;
3359;SDS011;1693;49.602;11.046;2023-10-13T13:21:12;1.87;;;1.40;;
3359;SDS011;1693;49.602;11.046;2023-10-13T13:23:48;3.13;;;2.00;;
3359;SDS011;1693;49.602;11.046;2023-10-13T13:26:16;2.23;;;1.37;;
3359;SDS011;1693;49.602;11.046;2023-10-13T13:28:45;2.17;;;1.40;;
3359;SDS011;1693;49.602;11.046;2023-10-13T13:31:15;4.27;;;2.60;;
3359;SDS011;1693;49.602;11.046;2023-10-13T13:33:45;3.27;;;2.00;;
3359;SDS011;1693;49.602;11.046;2023-10-13T13:36:16;4.27;;;1.70;;
3359;SDS011;1693;49.602;11.046;2023-10-13T13:38:46;2.87;;;1.40;;
3359;SDS011;1693;49.602;11.046;2023-10-13T13:41:17;2.90;;;1.57;;
3359;SDS011;1693;49.602;11.046;2023-10-13T13:43:45;2.43;;;1.47;;
3359;SDS011;1693;49.602;11.046;2023-10-13T13:46:22;3.00;;;1.63;;
3359;SDS011;1693;49.602;11.046;2023-10-13T13:48:53;2.40;;;1.40;;
3359;SDS011;1693;49.602;11.046;2023-10-13T13:51:24;2.40;;;1.70;;
3359;SDS011;1693;49.602;11.046;2023-10-13T13:53:58;4.87;;;2.57;;
3359;SDS011;1693;49.602;11.046;2023-10-13T13:56:25;1.70;;;1.20;;
3359;SDS011;1693;49.602;11.046;2023-10-13T13:58:54;3.00;;;1.73;;
3359;SDS011;1693;49.602;11.046;2023-10-13T14:01:21;1.83;;;1.20;;
3359;SDS011;1693;49.602;11.046;2023-10-13T14:03:52;3.77;;;2.10;;
3359;SDS011;1693;49.602;11.046;2023-10-13T14:06:22;3.33;;;2.00;;
3359;SDS011;1693;49.602;11.046;2023-10-13T14:08:52;2.43;;;1.67;;
3359;SDS011;1693;49.602;11.046;2023-10-13T14:11:23;2.50;;;1.50;;
3359;SDS011;1693;49.602;11.046;2023-10-13T14:14:09;2.13;;;1.50;;
3359;SDS011;1693;49.602;11.046;2023-10-13T14:16:54;3.50;;;1.70;;
3359;SDS011;1693;49.602;11.046;2023-10-13T14:19:28;2.13;;;1.50;;
3359;SDS011;1693;49.602;11.046;2023-10-13T14:21:55;4.93;;;1.83;;
3359;SDS011;1693;49.602;11.046;2023-10-13T14:24:22;2.30;;;1.33;;
3359;SDS011;1693;49.602;11.046;2023-10-13T14:26:54;2.33;;;1.57;;
3359;SDS011;1693;49.602;11.046;2023-10-13T14:29:22;1.90;;;1.50;;
3359;SDS011;1693;49.602;11.046;2023-10-13T14:31:52;2.07;;;1.30;;
3359;SDS011;1693;49.602;11.046;2023-10-13T14:34:19;2.83;;;1.80;;
3359;SDS011;1693;49.602;11.046;2023-10-13T14:36:47;4.23;;;2.57;;
3359;SDS011;1693;49.602;11.046;2023-10-13T14:39:14;3.33;;;2.00;;
3359;SDS011;1693;49.602;11.046;2023-10-13T14:41:41;3.93;;;2.07;;
3359;SDS011;1693;49.602;11.046;2023-10-13T14:44:16;3.93;;;1.70;;
3359;SDS011;1693;49.602;11.046;2023-10-13T14:46:44;3.07;;;1.87;;
3359;SDS011;1693;49.602;11.046;2023-10-13T14:49:11;2.03;;;1.47;;
3359;SDS011;1693;49.602;11.046;2023-10-13T14:51:44;6.23;;;1.93;;
3359;SDS011;1693;49.602;11.046;2023-10-13T14:54:12;3.70;;;2.00;;
3359;SDS011;1693;49.602;11.046;2023-10-13T14:56:40;2.40;;;2.00;;
3359;SDS011;1693;49.602;11.046;2023-10-13T14:59:07;1.40;;;1.10;;
3359;SDS011;1693;49.602;11.046;2023-10-13T15:01:43;2.17;;;1.47;;
3359;SDS011;1693;49.602;11.046;2023-10-13T15:04:11;4.43;;;1.53;;
3359;SDS011;1693;49.602;11.046;2023-10-13T15:06:38;3.40;;;1.97;;
3359;SDS011;1693;49.602;11.046;2023-10-13T15:09:05;2.03;;;1.30;;
3359;SDS011;1693;49.602;11.046;2023-10-13T15:11:37;2.13;;;1.50;;
3359;SDS011;1693;49.602;11.046;2023-10-13T15:14:10;2.80;;;1.30;;
3359;SDS011;1693;49.602;11.046;2023-10-13T15:16:38;2.53;;;1.27;;
3359;SDS011;1693;49.602;11.046;2023-10-13T15:19:07;1.93;;;1.20;;
3359;SDS011;1693;49.602;11.046;2023-10-13T15:21:35;1.50;;;1.20;;
3359;SDS011;1693;49.602;11.046;2023-10-13T15:24:02;2.40;;;1.77;;
3359;SDS011;1693;49.602;11.046;2023-10-13T15:26:38;2.47;;;1.57;;
3359;SDS011;1693;49.602;11.046;2023-10-13T15:29:08;1.50;;;1.20;;
3359;SDS011;1693;49.602;11.046;2023-10-13T15:31:38;1.63;;;1.30;;
3359;SDS011;1693;49.602;11.046;2023-10-13T15:34:12;2.43;;;1.50;;
3359;SDS011;1693;49.602;11.046;2023-10-13T15:36:39;2.60;;;1.50;;
3359;SDS011;1693;49.602;11.046;2023-10-13T15:39:09;3.17;;;1.30;;
3359;SDS011;1693;49.602;11.046;2023-10-13T15:41:36;1.97;;;1.73;;
3359;SDS011;1693;49.602;11.046;2023-10-13T15:44:05;3.30;;;1.83;;